Hood Army Air Field
KHLR : rendu visible

Aérodrome :











RETROUVEZ-NOUS SUR...

 
LOGIN :

S'inscrire | Disclaimer

   EN    FR    IT 

 









Légende :    VFR   VFR Marginal   IFR   IFR Intensif   IFR Très Intensif
Visi : 
Plafond : 
>= 8 km
>= 3000ft
5 à 8 km
1000 à 3000 ft
1500m à 5 km
500 à 1000 ft
800 à 1500m
200 à 500 ft
< 800m
< 200 ft
Symboles :   Orages  Brouillard  Fortes neiges  Fortes précipitations  Vent > 20 kt






- Altitude de l'aérodrome : 924 ft


KHLR - Hood Army Air Field

DERNIER METAR :
  • 300158Z AUTO 03005KT 10SM CLR 25/15 A3010 RMK AO2 SLP183 T02500148

METARs EXPIRÉS :
  • 300058Z AUTO 05006KT 10SM CLR 27/14 A3010 RMK AO2 SLP183 T02710138
  • 292358Z AUTO 04010KT 10SM CLR 29/14 A3009 RMK AO2 SLP180 T02880135 10301 20279 57014

TAF N/A
FIR KZHU / Amérique du Nord



MET'MAP, la Météo Aéronautique d'un coup d'oeil ! - Copyright ORBIFLY Décembre 2007 - Disclaimer

ORBIFLY MET'MAP TEAM :

Programmation & Développement : Alexandra Zaïnal
Sur une idée originale de : Baudouin d'Aumeries
Assistance à la programmation : Marc-Olivier Méhu
Soutien technique & logistique : Manuel Goepfert

Contact : metmap@orbifly.com




SOURCES & CREDITS :

   NOAA       Earth
Advisory